createdAt,value
2023-04-19T00:00:54.041Z,97544.66
2023-04-19T00:03:26.332Z,97542.36
2023-04-19T00:05:59.540Z,97542.25
2023-04-19T00:08:29.454Z,97542.98
2023-04-19T00:10:58.825Z,97540.20
2023-04-19T00:13:28.131Z,97535.60
2023-04-19T00:15:57.628Z,97534.89
2023-04-19T00:18:27.787Z,97535.44
2023-04-19T00:20:56.940Z,97534.42
2023-04-19T00:23:27.518Z,97529.96
2023-04-19T00:25:57.690Z,97530.99
2023-04-19T00:28:27.077Z,97526.64
2023-04-19T00:30:57.343Z,97527.66
2023-04-19T00:33:28.304Z,97528.25
2023-04-19T00:36:00.126Z,97530.84
2023-04-19T00:38:30.142Z,97531.76
2023-04-19T00:41:00.824Z,97530.90
2023-04-19T00:43:30.413Z,97529.90
2023-04-19T00:46:01.069Z,97525.54
2023-04-19T00:48:31.335Z,97526.25
2023-04-19T00:51:02.381Z,97526.18
2023-04-19T00:53:32.679Z,97522.05
2023-04-19T00:56:05.260Z,97519.27
2023-04-19T00:58:37.574Z,97508.20
2023-04-19T01:01:07.106Z,97508.89
2023-04-19T01:03:37.016Z,97505.52
2023-04-19T01:06:08.124Z,97505.13
2023-04-19T01:08:38.105Z,97506.75
2023-04-19T01:11:10.757Z,97506.77
2023-04-19T01:13:39.817Z,97508.24
2023-04-19T01:16:12.773Z,97502.25
2023-04-19T01:18:42.036Z,97501.27
2023-04-19T01:21:13.023Z,97504.31
2023-04-19T01:23:43.593Z,97500.61
2023-04-19T01:26:13.844Z,97499.61
2023-04-19T01:28:44.554Z,97496.21
2023-04-19T01:31:13.603Z,97496.66
2023-04-19T01:33:44.569Z,97495.55
2023-04-19T01:36:13.725Z,97495.83
2023-04-19T01:38:44.164Z,97492.45
2023-04-19T01:41:13.128Z,97486.52
2023-04-19T01:43:42.706Z,97486.84
2023-04-19T01:46:12.726Z,97486.90
2023-04-19T01:48:42.156Z,97486.06
2023-04-19T01:51:11.605Z,97484.52
2023-04-19T01:53:40.849Z,97482.58
2023-04-19T01:56:10.334Z,97478.81
2023-04-19T01:58:39.715Z,97480.56
2023-04-19T02:01:13.006Z,97482.07
2023-04-19T02:03:42.588Z,97483.41
2023-04-19T02:06:13.036Z,97485.39
2023-04-19T02:08:44.297Z,97482.52
2023-04-19T02:11:18.445Z,97486.77
2023-04-19T02:13:47.907Z,97484.52
2023-04-19T02:16:16.891Z,97482.95
2023-04-19T02:18:47.045Z,97480.88
2023-04-19T02:21:17.671Z,97479.52
2023-04-19T02:23:47.097Z,97480.05
2023-04-19T02:26:16.072Z,97478.05
2023-04-19T02:28:45.953Z,97474.95
2023-04-19T02:31:16.185Z,97473.63
2023-04-19T02:33:48.494Z,97469.42
2023-04-19T02:36:17.968Z,97468.08
2023-04-19T02:38:48.078Z,97465.70
2023-04-19T02:41:17.096Z,97468.88
2023-04-19T02:43:47.088Z,97462.95
2023-04-19T02:46:16.821Z,97460.64
2023-04-19T02:48:46.648Z,97461.31
2023-04-19T02:51:17.809Z,97460.38
2023-04-19T02:53:47.144Z,97453.91
2023-04-19T02:56:17.099Z,97448.11
2023-04-19T02:58:47.825Z,97446.69
2023-04-19T03:01:18.332Z,97442.02
2023-04-19T03:03:48.706Z,97441.38
2023-04-19T03:06:18.040Z,97441.58
2023-04-19T03:08:47.595Z,97439.63
2023-04-19T03:11:18.771Z,97441.17
2023-04-19T03:13:50.407Z,97438.67
2023-04-19T03:16:19.615Z,97441.04
2023-04-19T03:18:49.708Z,97438.83
2023-04-19T03:21:21.557Z,97439.16
2023-04-19T03:23:56.406Z,97437.08
2023-04-19T03:26:26.867Z,97437.32
2023-04-19T03:28:59.236Z,97437.04
2023-04-19T03:31:43.176Z,97439.45
2023-04-19T03:34:15.171Z,97440.07
2023-04-19T03:36:47.233Z,97438.83
2023-04-19T03:39:16.621Z,97443.94
2023-04-19T03:41:48.213Z,97443.23
2023-04-19T03:44:31.652Z,97439.76
2023-04-19T03:47:00.710Z,97438.88
2023-04-19T03:49:31.810Z,97435.61
2023-04-19T03:52:06.202Z,97434.86
2023-04-19T03:54:36.236Z,97436.35
2023-04-19T03:57:07.828Z,97435.17
2023-04-19T03:59:40.508Z,97436.00
2023-04-19T04:02:11.533Z,97436.45
2023-04-19T04:04:41.154Z,97436.84
2023-04-19T04:07:11.482Z,97435.66
2023-04-19T04:09:41.035Z,97437.39
2023-04-19T04:12:13.029Z,97436.23
2023-04-19T04:14:42.546Z,97432.84
2023-04-19T04:17:13.304Z,97432.89
2023-04-19T04:19:43.587Z,97429.75
2023-04-19T04:22:14.780Z,97430.58
2023-04-19T04:24:44.783Z,97427.31
2023-04-19T04:27:24.949Z,97432.75
2023-04-19T04:29:57.364Z,97432.39
2023-04-19T04:32:27.007Z,97431.48
2023-04-19T04:35:03.993Z,97430.80
2023-04-19T04:37:56.969Z,97429.33
2023-04-19T04:40:29.561Z,97427.22
2023-04-19T04:43:01.646Z,97427.34
2023-04-19T04:45:32.449Z,97426.77
2023-04-19T04:48:02.146Z,97427.19
2023-04-19T04:50:31.963Z,97429.81
2023-04-19T04:53:03.127Z,97429.02
2023-04-19T04:55:36.953Z,97427.50
2023-04-19T04:58:06.788Z,97426.81
2023-04-19T05:00:49.576Z,97427.61
2023-04-19T05:03:20.617Z,97423.73
2023-04-19T05:05:56.860Z,97423.73
2023-04-19T05:08:27.233Z,97421.43
2023-04-19T05:11:00.219Z,97418.36
2023-04-19T05:13:31.776Z,97423.80
2023-04-19T05:16:01.735Z,97425.11
2023-04-19T05:18:32.849Z,97421.33
2023-04-19T05:21:02.889Z,97418.09
2023-04-19T05:23:33.965Z,97420.74
2023-04-19T05:26:02.899Z,97418.43
2023-04-19T05:28:33.132Z,97414.30
2023-04-19T05:31:11.108Z,97411.51
2023-04-19T05:33:50.448Z,97409.23
2023-04-19T05:36:20.329Z,97408.63
2023-04-19T05:38:49.433Z,97406.59
2023-04-19T05:41:19.379Z,97403.50
2023-04-19T05:43:49.407Z,97402.11
2023-04-19T05:46:20.599Z,97400.94
2023-04-19T05:48:50.337Z,97405.24
2023-04-19T05:51:43.126Z,97403.71
2023-04-19T05:54:17.995Z,97410.13
2023-04-19T05:56:49.236Z,97406.75
2023-04-19T05:59:19.442Z,97407.11
2023-04-19T06:01:49.411Z,97409.16
2023-04-19T06:04:19.672Z,97406.62
2023-04-19T06:06:49.915Z,97407.02
2023-04-19T06:09:20.372Z,97409.64
2023-04-19T06:11:52.080Z,97410.35
2023-04-19T06:14:22.055Z,97410.84
2023-04-19T06:16:52.144Z,97406.17
2023-04-19T06:19:21.617Z,97404.46
2023-04-19T06:21:52.281Z,97404.55
2023-04-19T06:24:21.531Z,97408.20
2023-04-19T06:26:52.662Z,97407.60
2023-04-19T06:29:24.184Z,97412.23
2023-04-19T06:31:54.249Z,97413.34
2023-04-19T06:34:24.578Z,97412.59
2023-04-19T06:36:55.064Z,97416.05
2023-04-19T06:39:25.226Z,97417.17
2023-04-19T06:41:55.062Z,97417.00
2023-04-19T06:44:25.351Z,97418.75
2023-04-19T06:46:55.086Z,97416.80
2023-04-19T06:49:24.458Z,97416.20
2023-04-19T06:51:54.757Z,97416.33
2023-04-19T06:54:24.841Z,97416.55
2023-04-19T06:56:58.569Z,97416.34
2023-04-19T06:59:28.883Z,97417.13
2023-04-19T07:01:59.080Z,97418.70
2023-04-19T07:04:28.395Z,97415.44
2023-04-19T07:06:58.281Z,97418.15
2023-04-19T07:09:29.365Z,97415.23
2023-04-19T07:11:59.083Z,97413.83
2023-04-19T07:14:28.630Z,97415.66
2023-04-19T07:16:58.352Z,97416.77
2023-04-19T07:19:29.588Z,97414.95
2023-04-19T07:21:59.837Z,97419.62
2023-04-19T07:24:30.967Z,97416.98
2023-04-19T07:27:02.187Z,97419.00
2023-04-19T07:29:31.704Z,97420.96
2023-04-19T07:32:02.406Z,97421.48
2023-04-19T07:34:32.295Z,97422.58
2023-04-19T07:37:02.451Z,97425.94
2023-04-19T07:39:32.205Z,97428.59
2023-04-19T07:42:02.394Z,97430.15
2023-04-19T07:44:32.763Z,97430.39
2023-04-19T07:47:01.807Z,97428.98
2023-04-19T07:49:34.717Z,97425.71
2023-04-19T07:52:03.858Z,97424.16
2023-04-19T07:54:35.002Z,97423.40
2023-04-19T07:57:05.004Z,97425.20
2023-04-19T07:59:35.167Z,97422.63
2023-04-19T08:02:05.031Z,97422.38
2023-04-19T08:04:35.700Z,97418.81
2023-04-19T08:07:05.892Z,97416.23
2023-04-19T08:09:38.248Z,97417.99
2023-04-19T08:12:10.109Z,97412.69
2023-04-19T08:14:56.403Z,97415.05
2023-04-19T08:17:36.727Z,97410.89
2023-04-19T08:20:13.511Z,97407.67
2023-04-19T08:22:42.571Z,97407.52
2023-04-19T08:25:14.190Z,97404.14
2023-04-19T08:27:43.426Z,97402.66
2023-04-19T08:30:12.906Z,97399.06
2023-04-19T08:32:43.657Z,97396.45
2023-04-19T08:35:14.763Z,97396.71
2023-04-19T08:37:44.214Z,97392.02
2023-04-19T08:40:15.418Z,97390.48
2023-04-19T08:42:46.459Z,97389.28
2023-04-19T08:45:27.587Z,97390.16
2023-04-19T08:48:02.145Z,97391.63
2023-04-19T08:50:38.807Z,97387.07
2023-04-19T08:53:24.716Z,97386.64
2023-04-19T09:01:12.842Z,97385.27
2023-04-19T09:04:02.399Z,97383.75
2023-04-19T09:06:43.729Z,97379.18
2023-04-19T09:12:01.024Z,97377.28
2023-04-19T09:14:30.557Z,97373.36
2023-04-19T09:17:17.001Z,97372.20
2023-04-19T09:19:49.059Z,97365.05
2023-04-19T09:22:19.137Z,97367.09
2023-04-19T09:27:34.940Z,97364.45
2023-04-19T09:30:07.303Z,97363.58
2023-04-19T09:32:48.650Z,97359.58
2023-04-19T09:35:18.226Z,97357.23
2023-04-19T09:40:35.493Z,97352.91
2023-04-19T09:43:23.129Z,97348.98
2023-04-19T09:45:54.149Z,97344.96
2023-04-19T09:48:23.847Z,97343.69
2023-04-19T09:51:02.651Z,97341.79
2023-04-19T09:53:36.026Z,97342.26
2023-04-19T09:56:15.613Z,97335.16
2023-04-19T09:58:51.057Z,97337.49
2023-04-19T10:01:27.000Z,97339.98
2023-04-19T10:04:01.354Z,97340.81
2023-04-19T10:07:06.986Z,97337.35
2023-04-19T10:09:40.040Z,97331.35
2023-04-19T10:12:40.628Z,97338.13
2023-04-19T10:15:11.856Z,97336.15
2023-04-19T10:17:42.203Z,97331.73
2023-04-19T10:20:24.582Z,97328.27
2023-04-19T10:22:54.204Z,97326.52
2023-04-19T10:25:30.445Z,97327.84
2023-04-19T10:28:00.974Z,97329.40
2023-04-19T10:30:30.157Z,97326.48
2023-04-19T10:33:03.275Z,97330.59
2023-04-19T10:35:38.125Z,97330.10
2023-04-19T10:38:16.895Z,97328.77
2023-04-19T10:40:57.820Z,97328.54
2023-04-19T10:43:37.045Z,97328.70
2023-04-19T10:46:10.955Z,97322.42
2023-04-19T10:48:54.197Z,97321.10
2023-04-19T10:51:28.289Z,97317.20
2023-04-19T10:53:59.385Z,97320.75
2023-04-19T10:56:38.401Z,97318.63
2023-04-19T10:59:12.178Z,97324.30
2023-04-19T11:01:45.987Z,97324.64
2023-04-19T11:04:27.948Z,97321.02
2023-04-19T11:07:06.279Z,97316.92
2023-04-19T11:09:39.523Z,97315.34
2023-04-19T11:12:14.870Z,97317.99
2023-04-19T11:14:49.330Z,97318.04
2023-04-19T11:17:32.417Z,97317.46
2023-04-19T11:20:11.826Z,97318.77
2023-04-19T11:22:47.618Z,97324.89
2023-04-19T11:25:21.093Z,97322.35
2023-04-19T11:27:53.560Z,97317.20
2023-04-19T11:30:30.464Z,97319.46
2023-04-19T11:32:59.912Z,97313.31
2023-04-19T11:35:32.964Z,97315.13
2023-04-19T11:38:07.737Z,97310.48
2023-04-19T11:40:38.013Z,97309.13
2023-04-19T11:43:06.993Z,97311.30
2023-04-19T11:45:39.945Z,97307.95
2023-04-19T11:48:16.804Z,97305.11
2023-04-19T11:50:49.874Z,97306.06
2023-04-19T11:53:23.917Z,97307.15
2023-04-19T11:56:06.696Z,97303.20
2023-04-19T11:58:45.197Z,97297.05
2023-04-19T12:01:20.459Z,97296.75
2023-04-19T12:03:57.135Z,97295.21
2023-04-19T12:06:29.006Z,97296.60
2023-04-19T12:08:59.866Z,97293.88
2023-04-19T12:11:55.930Z,97294.79
2023-04-19T12:14:31.864Z,97291.92
2023-04-19T12:17:27.720Z,97288.36
2023-04-19T12:19:56.706Z,97287.73
2023-04-19T12:22:25.792Z,97290.52
2023-04-19T12:24:56.436Z,97287.89
2023-04-19T12:27:26.341Z,97289.73
2023-04-19T12:29:55.957Z,97292.30
2023-04-19T12:32:25.413Z,97292.16
2023-04-19T12:34:57.888Z,97295.54
2023-04-19T12:37:27.091Z,97293.94
2023-04-19T12:39:56.987Z,97288.05
2023-04-19T12:42:27.237Z,97290.70
2023-04-19T12:44:57.150Z,97289.85
2023-04-19T12:47:27.156Z,97291.66
2023-04-19T12:49:58.225Z,97290.59
2023-04-19T12:52:29.174Z,97294.08
2023-04-19T12:54:58.691Z,97293.96
2023-04-19T12:57:29.220Z,97293.27
2023-04-19T12:59:59.271Z,97294.20
2023-04-19T13:02:34.267Z,97295.02
2023-04-19T13:05:05.553Z,97290.48
2023-04-19T13:07:34.820Z,97296.09
2023-04-19T13:10:04.633Z,97291.08
2023-04-19T13:12:37.080Z,97290.45
2023-04-19T13:15:08.119Z,97290.86
2023-04-19T13:17:38.493Z,97289.84
2023-04-19T13:20:09.856Z,97292.38
2023-04-19T13:22:40.149Z,97293.13
2023-04-19T13:25:10.140Z,97295.82
2023-04-19T13:27:39.660Z,97298.05
2023-04-19T13:30:10.846Z,97299.33
2023-04-19T13:32:40.814Z,97304.02
2023-04-19T13:35:10.632Z,97300.59
2023-04-19T13:37:41.016Z,97303.96
2023-04-19T13:40:18.585Z,97306.58
2023-04-19T13:42:50.430Z,97301.84
2023-04-19T13:45:19.991Z,97311.34
2023-04-19T13:47:49.962Z,97306.04
2023-04-19T13:50:18.992Z,97310.06
2023-04-19T13:52:48.458Z,97311.73
2023-04-19T13:55:18.969Z,97317.00
2023-04-19T13:57:48.575Z,97316.92
2023-04-19T14:00:19.572Z,97315.81
2023-04-19T14:02:52.094Z,97320.77
2023-04-19T14:05:22.378Z,97318.55
2023-04-19T14:07:53.154Z,97321.34
2023-04-19T14:10:22.195Z,97319.09
2023-04-19T14:12:53.462Z,97317.51
2023-04-19T14:15:24.388Z,97320.14
2023-04-19T14:18:05.517Z,97319.29
2023-04-19T14:20:34.883Z,97317.84
2023-04-19T14:23:04.198Z,97319.81
2023-04-19T14:25:34.483Z,97320.36
2023-04-19T14:28:04.369Z,97317.89
2023-04-19T14:30:34.152Z,97317.36
2023-04-19T14:33:03.244Z,97318.68
2023-04-19T14:35:33.171Z,97313.14
2023-04-19T14:38:03.484Z,97312.59
2023-04-19T14:40:32.653Z,97315.83
2023-04-19T14:43:01.753Z,97311.98
2023-04-19T14:45:31.896Z,97313.55
2023-04-19T14:48:01.212Z,97309.23
2023-04-19T14:50:31.251Z,97313.09
2023-04-19T14:53:00.971Z,97312.66
2023-04-19T14:55:30.695Z,97317.29
2023-04-19T14:57:59.660Z,97318.87
2023-04-19T15:00:29.149Z,97322.19
2023-04-19T15:02:58.418Z,97320.17
2023-04-19T15:05:27.927Z,97326.36
2023-04-19T15:07:58.059Z,97324.40
2023-04-19T15:10:28.177Z,97324.36
2023-04-19T15:12:58.482Z,97328.54
2023-04-19T15:15:28.622Z,97330.23
2023-04-19T15:17:58.178Z,97334.95
2023-04-19T15:20:27.680Z,97335.70
2023-04-19T15:22:57.340Z,97337.02
2023-04-19T15:25:26.327Z,97339.54
2023-04-19T15:27:56.039Z,97342.39
2023-04-19T15:30:25.503Z,97339.52
2023-04-19T15:32:55.120Z,97343.40
2023-04-19T15:35:24.623Z,97341.02
2023-04-19T15:37:53.752Z,97344.52
2023-04-19T15:40:24.895Z,97343.08
2023-04-19T15:42:53.774Z,97347.09
2023-04-19T15:45:23.373Z,97346.91
2023-04-19T15:47:52.408Z,97346.64
2023-04-19T15:50:22.591Z,97345.73
2023-04-19T15:52:51.872Z,97348.05
2023-04-19T15:55:21.033Z,97350.48
2023-04-19T15:57:50.427Z,97350.09
2023-04-19T16:00:21.441Z,97348.84
2023-04-19T16:02:51.071Z,97350.95
2023-04-19T16:05:20.840Z,97347.86
2023-04-19T16:08:03.958Z,97348.12
2023-04-19T16:10:33.688Z,97344.58
2023-04-19T16:13:06.423Z,97344.48
2023-04-19T16:15:36.978Z,97345.09
2023-04-19T16:18:07.218Z,97345.15
2023-04-19T16:20:38.335Z,97346.44
2023-04-19T16:23:07.760Z,97350.38
2023-04-19T16:25:38.134Z,97354.46
2023-04-19T16:28:07.096Z,97352.63
2023-04-19T16:30:37.360Z,97354.06
2023-04-19T16:33:07.724Z,97351.42
2023-04-19T16:35:37.605Z,97354.06
2023-04-19T16:38:07.641Z,97355.42
2023-04-19T16:40:37.718Z,97357.06
2023-04-19T16:43:06.719Z,97354.67
2023-04-19T16:45:37.133Z,97354.30
2023-04-19T16:48:06.792Z,97358.11
2023-04-19T16:50:36.486Z,97358.59
2023-04-19T16:53:06.167Z,97362.85
2023-04-19T16:55:37.026Z,97364.55
2023-04-19T16:58:06.811Z,97366.35
2023-04-19T17:00:37.216Z,97368.95
2023-04-19T17:03:06.313Z,97364.31
2023-04-19T17:05:36.166Z,97369.36
2023-04-19T17:08:07.277Z,97366.20
2023-04-19T17:10:37.359Z,97371.89
2023-04-19T17:13:06.304Z,97373.22
2023-04-19T17:15:37.785Z,97375.38
2023-04-19T17:18:07.535Z,97375.50
2023-04-19T17:20:41.022Z,97379.48
2023-04-19T17:23:10.958Z,97385.20
2023-04-19T17:25:41.370Z,97383.42
2023-04-19T17:28:10.961Z,97384.41
2023-04-19T17:30:40.734Z,97387.08
2023-04-19T17:33:10.560Z,97389.26
2023-04-19T17:35:40.496Z,97394.35
2023-04-19T17:38:09.987Z,97397.67
2023-04-19T17:40:40.152Z,97395.45
2023-04-19T17:43:10.935Z,97402.70
2023-04-19T17:45:40.791Z,97406.65
2023-04-19T17:48:10.642Z,97405.91
2023-04-19T17:50:40.650Z,97407.56
2023-04-19T17:53:09.664Z,97410.73
2023-04-19T17:55:39.108Z,97413.39
2023-04-19T17:58:08.544Z,97422.31
2023-04-19T18:00:38.194Z,97425.55
2023-04-19T18:03:11.172Z,97427.21
2023-04-19T18:05:41.380Z,97432.38
2023-04-19T18:08:10.901Z,97432.83
2023-04-19T18:10:40.212Z,97434.88
2023-04-19T18:13:09.410Z,97434.98
2023-04-19T18:15:38.679Z,97437.20
2023-04-19T18:18:08.473Z,97441.98
2023-04-19T18:20:38.827Z,97446.55
2023-04-19T18:23:08.337Z,97448.05
2023-04-19T18:25:40.126Z,97450.63
2023-04-19T18:28:11.177Z,97447.06
2023-04-19T18:30:40.332Z,97449.73
2023-04-19T18:33:09.958Z,97455.27
2023-04-19T18:35:41.491Z,97457.14
2023-04-19T18:38:10.988Z,97455.27
2023-04-19T18:40:41.364Z,97455.63
2023-04-19T18:43:11.355Z,97455.79
2023-04-19T18:45:41.051Z,97458.41
2023-04-19T18:48:10.585Z,97458.83
2023-04-19T18:50:40.656Z,97460.45
2023-04-19T18:53:09.503Z,97459.50
2023-04-19T18:55:39.442Z,97460.16
2023-04-19T18:58:09.183Z,97460.90
2023-04-19T19:00:38.623Z,97460.85
2023-04-19T19:03:32.130Z,97462.19
2023-04-19T19:06:00.107Z,97463.00
2023-04-19T19:08:29.728Z,97464.41
2023-04-19T19:13:36.400Z,97457.80
2023-04-19T19:16:06.513Z,97457.70
2023-04-19T19:18:36.478Z,97459.49
2023-04-19T19:21:07.866Z,97460.20
2023-04-19T19:23:42.224Z,97459.88
2023-04-19T19:26:13.564Z,97461.48
2023-04-19T19:28:43.641Z,97457.45
2023-04-19T19:31:13.230Z,97456.95
2023-04-19T19:33:49.969Z,97456.98
2023-04-19T19:36:22.832Z,97452.84
2023-04-19T19:38:51.936Z,97459.20
2023-04-19T19:43:52.847Z,97459.35
2023-04-19T19:46:23.009Z,97459.28
2023-04-19T19:48:53.961Z,97458.36
2023-04-19T19:51:52.020Z,97460.44
2023-04-19T19:54:12.905Z,97458.69
2023-04-19T19:57:11.675Z,97459.05
2023-04-19T19:59:34.518Z,97458.01
2023-04-19T20:02:05.215Z,97462.36
2023-04-19T20:04:39.401Z,97465.00
2023-04-19T20:10:02.329Z,97463.50
2023-04-19T20:12:32.301Z,97466.18
2023-04-19T20:15:02.802Z,97468.77
2023-04-19T20:17:32.831Z,97472.85
2023-04-19T20:20:06.042Z,97476.55
2023-04-19T20:22:36.509Z,97473.09
2023-04-19T20:25:06.840Z,97476.01
2023-04-19T20:27:38.573Z,97476.50
2023-04-19T20:30:09.564Z,97471.80
2023-04-19T20:32:43.140Z,97471.38
2023-04-19T20:35:13.182Z,97471.23
2023-04-19T20:37:42.662Z,97472.33
2023-04-19T20:40:15.552Z,97476.75
2023-04-19T20:42:45.158Z,97476.63
2023-04-19T20:45:15.017Z,97481.39
2023-04-19T20:47:44.656Z,97474.92
2023-04-19T20:50:15.119Z,97478.14
2023-04-19T20:52:44.888Z,97479.27
2023-04-19T20:55:17.092Z,97479.17
2023-04-19T20:57:46.731Z,97482.23
2023-04-19T21:00:17.116Z,97486.05
2023-04-19T21:02:47.205Z,97487.46
2023-04-19T21:05:16.950Z,97490.09
2023-04-19T21:07:46.623Z,97491.58
2023-04-19T21:10:18.244Z,97494.46
2023-04-19T21:12:48.435Z,97497.33
2023-04-19T21:15:18.474Z,97496.73
2023-04-19T21:17:47.709Z,97497.44
2023-04-19T21:20:18.757Z,97498.24
2023-04-19T21:22:49.312Z,97499.52
2023-04-19T21:25:19.326Z,97506.19
2023-04-19T21:27:48.658Z,97508.23
2023-04-19T21:30:19.466Z,97514.05
2023-04-19T21:32:50.903Z,97513.10
2023-04-19T21:35:20.848Z,97512.45
2023-04-19T21:37:50.802Z,97512.77
2023-04-19T21:40:21.029Z,97510.92
2023-04-19T21:42:50.453Z,97513.48
2023-04-19T21:45:20.060Z,97518.91
2023-04-19T21:47:49.486Z,97517.39
2023-04-19T21:50:19.555Z,97519.66
2023-04-19T21:52:48.901Z,97519.61
2023-04-19T21:55:18.908Z,97520.13
2023-04-19T21:57:48.366Z,97523.86
2023-04-19T22:00:18.721Z,97522.67
2023-04-19T22:02:48.844Z,97521.14
2023-04-19T22:05:18.705Z,97522.73
2023-04-19T22:07:49.710Z,97526.34
2023-04-19T22:10:19.229Z,97525.53
2023-04-19T22:12:58.852Z,97530.15
2023-04-19T22:15:29.927Z,97530.28
2023-04-19T22:17:59.009Z,97531.08
2023-04-19T22:20:29.447Z,97529.33
2023-04-19T22:22:59.213Z,97530.25
2023-04-19T22:25:29.517Z,97530.08
2023-04-19T22:27:59.273Z,97531.66
2023-04-19T22:30:29.044Z,97530.78
2023-04-19T22:32:58.558Z,97530.58
2023-04-19T22:35:28.393Z,97535.90
2023-04-19T22:37:57.396Z,97539.81
2023-04-19T22:40:32.684Z,97535.48
2023-04-19T22:43:03.137Z,97535.34
2023-04-19T22:45:32.652Z,97533.15
2023-04-19T22:48:01.773Z,97532.66
2023-04-19T22:50:31.629Z,97536.45
2023-04-19T22:53:01.750Z,97542.44
2023-04-19T22:55:31.169Z,97533.84
2023-04-19T22:58:00.740Z,97539.00
2023-04-19T23:00:31.684Z,97537.10
2023-04-19T23:03:02.055Z,97535.27
2023-04-19T23:05:32.269Z,97536.16
2023-04-19T23:08:04.701Z,97536.91
2023-04-19T23:10:38.602Z,97534.98
2023-04-19T23:13:10.742Z,97532.14
2023-04-19T23:15:41.303Z,97529.31
2023-04-19T23:18:12.012Z,97526.64
2023-04-19T23:20:42.088Z,97529.80
2023-04-19T23:23:12.304Z,97524.05
2023-04-19T23:25:42.009Z,97528.15
2023-04-19T23:28:12.707Z,97528.91
2023-04-19T23:30:42.173Z,97531.60
2023-04-19T23:33:11.666Z,97529.28
2023-04-19T23:35:41.314Z,97527.48
2023-04-19T23:38:11.203Z,97526.29
2023-04-19T23:40:41.057Z,97527.53
2023-04-19T23:43:10.795Z,97523.92
2023-04-19T23:45:40.424Z,97522.73
2023-04-19T23:48:10.366Z,97521.17
2023-04-19T23:50:40.604Z,97519.88
2023-04-19T23:53:09.865Z,97520.92
2023-04-19T23:55:40.161Z,97524.63
2023-04-19T23:58:09.411Z,97521.52
